sensor_id;sensor_type;location;lat;lon;timestamp;temperature;humidity
2621;DHT22;1320;48.128;11.592;2024-03-22T00:01:49;9.70;99.90
2621;DHT22;1320;48.128;11.592;2024-03-22T00:04:15;9.70;99.90
2621;DHT22;1320;48.128;11.592;2024-03-22T00:06:42;9.70;99.90
2621;DHT22;1320;48.128;11.592;2024-03-22T00:09:09;9.70;99.90
2621;DHT22;1320;48.128;11.592;2024-03-22T00:11:35;9.70;99.90
2621;DHT22;1320;48.128;11.592;2024-03-22T00:14:01;9.70;99.90
2621;DHT22;1320;48.128;11.592;2024-03-22T00:16:27;9.70;99.90
2621;DHT22;1320;48.128;11.592;2024-03-22T00:18:53;9.70;99.90
2621;DHT22;1320;48.128;11.592;2024-03-22T00:21:19;9.70;99.90
2621;DHT22;1320;48.128;11.592;2024-03-22T00:23:45;9.70;99.90
2621;DHT22;1320;48.128;11.592;2024-03-22T00:26:11;9.70;99.90
2621;DHT22;1320;48.128;11.592;2024-03-22T00:28:37;9.70;99.90
2621;DHT22;1320;48.128;11.592;2024-03-22T00:31:02;9.60;99.90
2621;DHT22;1320;48.128;11.592;2024-03-22T00:33:28;9.60;99.90
2621;DHT22;1320;48.128;11.592;2024-03-22T00:35:54;9.50;99.90
2621;DHT22;1320;48.128;11.592;2024-03-22T00:38:20;9.50;99.90
2621;DHT22;1320;48.128;11.592;2024-03-22T00:40:45;9.50;99.90
2621;DHT22;1320;48.128;11.592;2024-03-22T00:43:11;9.50;99.90
2621;DHT22;1320;48.128;11.592;2024-03-22T00:45:37;9.50;99.90
2621;DHT22;1320;48.128;11.592;2024-03-22T00:48:03;9.50;99.90
2621;DHT22;1320;48.128;11.592;2024-03-22T00:50:30;9.50;99.90
2621;DHT22;1320;48.128;11.592;2024-03-22T00:52:56;9.60;99.90
2621;DHT22;1320;48.128;11.592;2024-03-22T00:55:22;9.60;99.90
2621;DHT22;1320;48.128;11.592;2024-03-22T00:57:49;9.60;99.90
2621;DHT22;1320;48.128;11.592;2024-03-22T01:00:15;9.60;99.90
2621;DHT22;1320;48.128;11.592;2024-03-22T01:02:42;9.60;99.90
2621;DHT22;1320;48.128;11.592;2024-03-22T01:05:08;9.60;99.90
2621;DHT22;1320;48.128;11.592;2024-03-22T01:07:33;9.70;99.90
2621;DHT22;1320;48.128;11.592;2024-03-22T01:09:59;9.70;99.90
2621;DHT22;1320;48.128;11.592;2024-03-22T01:12:25;9.70;99.90
2621;DHT22;1320;48.128;11.592;2024-03-22T01:14:51;9.70;99.90
2621;DHT22;1320;48.128;11.592;2024-03-22T01:17:17;9.70;99.90
2621;DHT22;1320;48.128;11.592;2024-03-22T01:19:42;9.60;99.90
2621;DHT22;1320;48.128;11.592;2024-03-22T01:22:08;9.60;99.90
2621;DHT22;1320;48.128;11.592;2024-03-22T01:24:34;9.70;99.90
2621;DHT22;1320;48.128;11.592;2024-03-22T01:27:00;9.70;99.90
2621;DHT22;1320;48.128;11.592;2024-03-22T01:29:25;9.70;99.90
2621;DHT22;1320;48.128;11.592;2024-03-22T01:31:53;9.70;99.90
2621;DHT22;1320;48.128;11.592;2024-03-22T01:34:18;9.70;99.90
2621;DHT22;1320;48.128;11.592;2024-03-22T01:36:44;9.70;99.90
2621;DHT22;1320;48.128;11.592;2024-03-22T01:39:11;9.70;99.90
2621;DHT22;1320;48.128;11.592;2024-03-22T01:41:36;9.70;99.90
2621;DHT22;1320;48.128;11.592;2024-03-22T01:44:02;9.70;99.90
2621;DHT22;1320;48.128;11.592;2024-03-22T01:46:28;9.70;99.90
2621;DHT22;1320;48.128;11.592;2024-03-22T01:48:54;9.60;99.90
2621;DHT22;1320;48.128;11.592;2024-03-22T01:51:20;9.50;99.90
2621;DHT22;1320;48.128;11.592;2024-03-22T01:53:45;9.50;99.90
2621;DHT22;1320;48.128;11.592;2024-03-22T01:56:11;9.40;99.90
2621;DHT22;1320;48.128;11.592;2024-03-22T01:58:37;9.40;99.90
2621;DHT22;1320;48.128;11.592;2024-03-22T02:01:03;9.40;99.90
2621;DHT22;1320;48.128;11.592;2024-03-22T02:03:29;9.40;99.90
2621;DHT22;1320;48.128;11.592;2024-03-22T02:05:55;9.40;99.90
2621;DHT22;1320;48.128;11.592;2024-03-22T02:08:21;9.40;99.90
2621;DHT22;1320;48.128;11.592;2024-03-22T02:10:47;9.40;99.90
2621;DHT22;1320;48.128;11.592;2024-03-22T02:13:12;9.40;99.90
2621;DHT22;1320;48.128;11.592;2024-03-22T02:15:38;9.30;99.90
2621;DHT22;1320;48.128;11.592;2024-03-22T02:18:04;9.30;99.90
2621;DHT22;1320;48.128;11.592;2024-03-22T02:20:30;9.20;99.90
2621;DHT22;1320;48.128;11.592;2024-03-22T02:22:56;9.20;99.90
2621;DHT22;1320;48.128;11.592;2024-03-22T02:25:21;9.20;99.90
2621;DHT22;1320;48.128;11.592;2024-03-22T02:27:47;9.20;99.90
2621;DHT22;1320;48.128;11.592;2024-03-22T02:30:16;9.20;99.90
2621;DHT22;1320;48.128;11.592;2024-03-22T02:32:42;9.20;99.90
2621;DHT22;1320;48.128;11.592;2024-03-22T02:35:08;9.20;99.90
2621;DHT22;1320;48.128;11.592;2024-03-22T02:37:34;9.20;99.90
2621;DHT22;1320;48.128;11.592;2024-03-22T02:40:00;9.20;99.90
2621;DHT22;1320;48.128;11.592;2024-03-22T02:42:25;9.20;99.90
2621;DHT22;1320;48.128;11.592;2024-03-22T02:44:52;9.20;99.90
2621;DHT22;1320;48.128;11.592;2024-03-22T02:47:17;9.20;99.90
2621;DHT22;1320;48.128;11.592;2024-03-22T02:49:43;9.10;99.90
2621;DHT22;1320;48.128;11.592;2024-03-22T02:52:09;9.10;99.90
2621;DHT22;1320;48.128;11.592;2024-03-22T02:54:35;9.10;99.90
2621;DHT22;1320;48.128;11.592;2024-03-22T02:57:00;9.10;99.90
2621;DHT22;1320;48.128;11.592;2024-03-22T02:59:27;9.10;99.90
2621;DHT22;1320;48.128;11.592;2024-03-22T03:01:53;9.10;99.90
2621;DHT22;1320;48.128;11.592;2024-03-22T03:04:19;9.10;99.90
2621;DHT22;1320;48.128;11.592;2024-03-22T03:06:45;9.00;99.90
2621;DHT22;1320;48.128;11.592;2024-03-22T03:09:11;9.00;99.90
2621;DHT22;1320;48.128;11.592;2024-03-22T03:11:41;9.00;99.90
2621;DHT22;1320;48.128;11.592;2024-03-22T03:14:07;9.10;99.90
2621;DHT22;1320;48.128;11.592;2024-03-22T03:16:33;9.00;99.90
2621;DHT22;1320;48.128;11.592;2024-03-22T03:18:58;9.00;99.90
2621;DHT22;1320;48.128;11.592;2024-03-22T03:21:24;9.00;99.90
2621;DHT22;1320;48.128;11.592;2024-03-22T03:23:50;8.90;99.90
2621;DHT22;1320;48.128;11.592;2024-03-22T03:26:16;8.90;99.90
2621;DHT22;1320;48.128;11.592;2024-03-22T03:28:42;8.90;99.90
2621;DHT22;1320;48.128;11.592;2024-03-22T03:31:07;8.90;99.90
2621;DHT22;1320;48.128;11.592;2024-03-22T03:33:33;8.90;99.90
2621;DHT22;1320;48.128;11.592;2024-03-22T03:35:59;8.90;99.90
2621;DHT22;1320;48.128;11.592;2024-03-22T03:38:24;8.90;99.90
2621;DHT22;1320;48.128;11.592;2024-03-22T03:40:50;8.80;99.90
2621;DHT22;1320;48.128;11.592;2024-03-22T03:43:16;8.80;99.90
2621;DHT22;1320;48.128;11.592;2024-03-22T03:45:42;8.80;99.90
2621;DHT22;1320;48.128;11.592;2024-03-22T03:48:07;8.80;99.90
2621;DHT22;1320;48.128;11.592;2024-03-22T03:50:36;8.80;99.90
2621;DHT22;1320;48.128;11.592;2024-03-22T03:53:01;8.80;99.90
2621;DHT22;1320;48.128;11.592;2024-03-22T03:55:27;8.70;99.90
2621;DHT22;1320;48.128;11.592;2024-03-22T03:57:53;8.70;99.90
2621;DHT22;1320;48.128;11.592;2024-03-22T04:00:22;8.70;99.90
2621;DHT22;1320;48.128;11.592;2024-03-22T04:02:50;8.60;99.90
2621;DHT22;1320;48.128;11.592;2024-03-22T04:05:16;8.60;99.90
2621;DHT22;1320;48.128;11.592;2024-03-22T04:07:42;8.60;99.90
2621;DHT22;1320;48.128;11.592;2024-03-22T04:10:08;8.60;99.90
2621;DHT22;1320;48.128;11.592;2024-03-22T04:12:34;8.60;99.90
2621;DHT22;1320;48.128;11.592;2024-03-22T04:15:00;8.50;99.90
2621;DHT22;1320;48.128;11.592;2024-03-22T04:17:26;8.50;99.90
2621;DHT22;1320;48.128;11.592;2024-03-22T04:19:51;8.60;99.90
2621;DHT22;1320;48.128;11.592;2024-03-22T04:22:17;8.60;99.90
2621;DHT22;1320;48.128;11.592;2024-03-22T04:24:43;8.60;99.90
2621;DHT22;1320;48.128;11.592;2024-03-22T04:27:09;8.60;99.90
2621;DHT22;1320;48.128;11.592;2024-03-22T04:29:35;8.60;99.90
2621;DHT22;1320;48.128;11.592;2024-03-22T04:32:00;8.70;99.90
2621;DHT22;1320;48.128;11.592;2024-03-22T04:34:26;8.70;99.90
2621;DHT22;1320;48.128;11.592;2024-03-22T04:36:52;8.70;99.90
2621;DHT22;1320;48.128;11.592;2024-03-22T04:39:19;8.70;99.90
2621;DHT22;1320;48.128;11.592;2024-03-22T04:41:45;8.70;99.90
2621;DHT22;1320;48.128;11.592;2024-03-22T04:44:11;8.70;99.90
2621;DHT22;1320;48.128;11.592;2024-03-22T04:46:37;8.70;99.90
2621;DHT22;1320;48.128;11.592;2024-03-22T04:49:02;8.70;99.90
2621;DHT22;1320;48.128;11.592;2024-03-22T04:51:28;8.70;99.90
2621;DHT22;1320;48.128;11.592;2024-03-22T04:53:54;8.70;99.90
2621;DHT22;1320;48.128;11.592;2024-03-22T04:56:20;8.70;99.90
2621;DHT22;1320;48.128;11.592;2024-03-22T04:58:45;8.70;99.90
2621;DHT22;1320;48.128;11.592;2024-03-22T05:01:11;8.70;99.90
2621;DHT22;1320;48.128;11.592;2024-03-22T05:03:38;8.70;99.90
2621;DHT22;1320;48.128;11.592;2024-03-22T05:06:04;8.80;99.90
2621;DHT22;1320;48.128;11.592;2024-03-22T05:08:32;8.80;99.90
2621;DHT22;1320;48.128;11.592;2024-03-22T05:10:57;8.80;99.90
2621;DHT22;1320;48.128;11.592;2024-03-22T05:13:23;8.90;99.90
2621;DHT22;1320;48.128;11.592;2024-03-22T05:15:49;8.90;99.90
2621;DHT22;1320;48.128;11.592;2024-03-22T05:18:15;8.90;99.90
2621;DHT22;1320;48.128;11.592;2024-03-22T05:20:40;9.00;99.90
2621;DHT22;1320;48.128;11.592;2024-03-22T05:23:06;9.00;99.90
2621;DHT22;1320;48.128;11.592;2024-03-22T05:25:32;9.10;99.90
2621;DHT22;1320;48.128;11.592;2024-03-22T05:27:58;9.20;99.90
2621;DHT22;1320;48.128;11.592;2024-03-22T05:30:23;9.20;99.90
2621;DHT22;1320;48.128;11.592;2024-03-22T05:32:49;9.30;99.90
2621;DHT22;1320;48.128;11.592;2024-03-22T05:35:16;9.30;99.90
2621;DHT22;1320;48.128;11.592;2024-03-22T05:37:41;9.40;99.90
2621;DHT22;1320;48.128;11.592;2024-03-22T05:40:08;9.40;99.90
2621;DHT22;1320;48.128;11.592;2024-03-22T05:42:34;9.50;99.90
2621;DHT22;1320;48.128;11.592;2024-03-22T05:45:00;9.60;99.90
2621;DHT22;1320;48.128;11.592;2024-03-22T05:47:26;9.60;99.90
2621;DHT22;1320;48.128;11.592;2024-03-22T05:49:51;9.70;99.90
2621;DHT22;1320;48.128;11.592;2024-03-22T05:52:18;9.80;99.90
2621;DHT22;1320;48.128;11.592;2024-03-22T05:54:43;9.80;99.90
2621;DHT22;1320;48.128;11.592;2024-03-22T05:57:09;9.80;99.90
2621;DHT22;1320;48.128;11.592;2024-03-22T05:59:36;9.90;99.90
2621;DHT22;1320;48.128;11.592;2024-03-22T06:02:02;10.00;99.90
2621;DHT22;1320;48.128;11.592;2024-03-22T06:04:28;10.00;99.90
2621;DHT22;1320;48.128;11.592;2024-03-22T06:06:54;10.10;99.90
2621;DHT22;1320;48.128;11.592;2024-03-22T06:09:19;10.10;99.90
2621;DHT22;1320;48.128;11.592;2024-03-22T06:12:00;10.10;99.90
2621;DHT22;1320;48.128;11.592;2024-03-22T06:14:28;10.20;99.90
2621;DHT22;1320;48.128;11.592;2024-03-22T06:16:53;10.20;99.90
2621;DHT22;1320;48.128;11.592;2024-03-22T06:19:19;10.30;99.90
2621;DHT22;1320;48.128;11.592;2024-03-22T06:21:45;10.30;99.90
2621;DHT22;1320;48.128;11.592;2024-03-22T06:24:10;10.30;99.90
2621;DHT22;1320;48.128;11.592;2024-03-22T06:26:36;10.30;99.90
2621;DHT22;1320;48.128;11.592;2024-03-22T06:29:02;10.40;99.90
2621;DHT22;1320;48.128;11.592;2024-03-22T06:31:28;10.30;99.90
2621;DHT22;1320;48.128;11.592;2024-03-22T06:33:54;10.30;99.90
2621;DHT22;1320;48.128;11.592;2024-03-22T06:36:21;10.30;99.90
2621;DHT22;1320;48.128;11.592;2024-03-22T06:38:47;10.20;99.90
2621;DHT22;1320;48.128;11.592;2024-03-22T06:41:13;10.10;99.90
2621;DHT22;1320;48.128;11.592;2024-03-22T06:43:39;10.10;99.90
2621;DHT22;1320;48.128;11.592;2024-03-22T06:46:06;10.10;99.90
2621;DHT22;1320;48.128;11.592;2024-03-22T06:48:32;10.10;99.90
2621;DHT22;1320;48.128;11.592;2024-03-22T06:50:57;10.20;99.90
2621;DHT22;1320;48.128;11.592;2024-03-22T06:53:23;10.20;99.90
2621;DHT22;1320;48.128;11.592;2024-03-22T06:55:49;10.30;99.90
2621;DHT22;1320;48.128;11.592;2024-03-22T06:58:15;10.30;99.90
2621;DHT22;1320;48.128;11.592;2024-03-22T07:00:40;10.40;99.90
2621;DHT22;1320;48.128;11.592;2024-03-22T07:03:06;10.50;99.90
2621;DHT22;1320;48.128;11.592;2024-03-22T07:05:32;10.50;99.90
2621;DHT22;1320;48.128;11.592;2024-03-22T07:07:57;10.60;99.90
2621;DHT22;1320;48.128;11.592;2024-03-22T07:10:24;10.70;99.90
2621;DHT22;1320;48.128;11.592;2024-03-22T07:12:56;10.70;99.90
2621;DHT22;1320;48.128;11.592;2024-03-22T07:15:23;10.80;99.90
2621;DHT22;1320;48.128;11.592;2024-03-22T07:17:49;10.90;99.90
2621;DHT22;1320;48.128;11.592;2024-03-22T07:20:16;10.90;99.90
2621;DHT22;1320;48.128;11.592;2024-03-22T07:22:42;11.00;99.90
2621;DHT22;1320;48.128;11.592;2024-03-22T07:25:08;11.10;99.90
2621;DHT22;1320;48.128;11.592;2024-03-22T07:27:36;11.20;99.90
2621;DHT22;1320;48.128;11.592;2024-03-22T07:30:02;11.40;99.90
2621;DHT22;1320;48.128;11.592;2024-03-22T07:32:29;11.70;99.90
2621;DHT22;1320;48.128;11.592;2024-03-22T07:34:55;12.00;99.90
2621;DHT22;1320;48.128;11.592;2024-03-22T07:37:21;12.30;99.90
2621;DHT22;1320;48.128;11.592;2024-03-22T07:39:47;12.40;99.90
2621;DHT22;1320;48.128;11.592;2024-03-22T07:42:13;12.60;99.90
2621;DHT22;1320;48.128;11.592;2024-03-22T07:44:38;12.70;99.90
2621;DHT22;1320;48.128;11.592;2024-03-22T07:47:04;12.70;99.90
2621;DHT22;1320;48.128;11.592;2024-03-22T07:49:30;12.80;99.90
2621;DHT22;1320;48.128;11.592;2024-03-22T07:51:57;12.70;99.90
2621;DHT22;1320;48.128;11.592;2024-03-22T07:54:23;12.70;99.90
2621;DHT22;1320;48.128;11.592;2024-03-22T07:56:50;12.80;99.90
2621;DHT22;1320;48.128;11.592;2024-03-22T07:59:16;12.80;99.90
2621;DHT22;1320;48.128;11.592;2024-03-22T08:01:42;13.00;99.90
2621;DHT22;1320;48.128;11.592;2024-03-22T08:04:07;13.10;99.90
2621;DHT22;1320;48.128;11.592;2024-03-22T08:06:33;13.20;99.90
2621;DHT22;1320;48.128;11.592;2024-03-22T08:08:59;13.30;99.90
2621;DHT22;1320;48.128;11.592;2024-03-22T08:11:26;13.60;99.90
2621;DHT22;1320;48.128;11.592;2024-03-22T08:13:52;14.00;99.90
2621;DHT22;1320;48.128;11.592;2024-03-22T08:16:18;14.50;99.90
2621;DHT22;1320;48.128;11.592;2024-03-22T08:18:45;14.80;99.90
2621;DHT22;1320;48.128;11.592;2024-03-22T08:21:10;15.10;99.90
2621;DHT22;1320;48.128;11.592;2024-03-22T08:23:36;15.40;99.90
2621;DHT22;1320;48.128;11.592;2024-03-22T08:28:29;16.20;99.90
2621;DHT22;1320;48.128;11.592;2024-03-22T08:30:54;16.70;99.90
2621;DHT22;1320;48.128;11.592;2024-03-22T08:33:20;17.10;99.90
2621;DHT22;1320;48.128;11.592;2024-03-22T08:35:46;17.40;99.90
2621;DHT22;1320;48.128;11.592;2024-03-22T08:38:12;17.60;99.90
2621;DHT22;1320;48.128;11.592;2024-03-22T08:40:40;17.80;99.90
2621;DHT22;1320;48.128;11.592;2024-03-22T08:43:06;18.00;99.90
2621;DHT22;1320;48.128;11.592;2024-03-22T08:45:35;18.30;99.90
2621;DHT22;1320;48.128;11.592;2024-03-22T08:48:01;18.70;99.90
2621;DHT22;1320;48.128;11.592;2024-03-22T08:50:27;19.00;99.90
2621;DHT22;1320;48.128;11.592;2024-03-22T08:52:52;19.30;99.90
2621;DHT22;1320;48.128;11.592;2024-03-22T08:55:18;19.70;99.90
2621;DHT22;1320;48.128;11.592;2024-03-22T08:57:44;19.80;99.90
2621;DHT22;1320;48.128;11.592;2024-03-22T09:00:11;19.90;99.90
2621;DHT22;1320;48.128;11.592;2024-03-22T09:02:37;19.90;99.90
2621;DHT22;1320;48.128;11.592;2024-03-22T09:05:05;20.10;99.90
2621;DHT22;1320;48.128;11.592;2024-03-22T09:07:31;20.30;99.90
2621;DHT22;1320;48.128;11.592;2024-03-22T09:09:56;20.50;99.90
2621;DHT22;1320;48.128;11.592;2024-03-22T09:12:22;20.70;99.90
2621;DHT22;1320;48.128;11.592;2024-03-22T09:14:48;20.70;99.10
2621;DHT22;1320;48.128;11.592;2024-03-22T09:17:13;20.60;99.30
2621;DHT22;1320;48.128;11.592;2024-03-22T09:19:39;20.50;99.20
2621;DHT22;1320;48.128;11.592;2024-03-22T09:22:05;20.50;99.30
2621;DHT22;1320;48.128;11.592;2024-03-22T09:24:31;20.50;99.30
2621;DHT22;1320;48.128;11.592;2024-03-22T09:26:57;20.60;99.70
2621;DHT22;1320;48.128;11.592;2024-03-22T09:29:24;20.80;99.40
2621;DHT22;1320;48.128;11.592;2024-03-22T09:31:50;21.00;99.40
2621;DHT22;1320;48.128;11.592;2024-03-22T09:34:18;21.30;98.30
2621;DHT22;1320;48.128;11.592;2024-03-22T09:36:45;21.40;98.00
2621;DHT22;1320;48.128;11.592;2024-03-22T09:39:11;21.50;97.60
2621;DHT22;1320;48.128;11.592;2024-03-22T09:41:42;21.40;96.70
2621;DHT22;1320;48.128;11.592;2024-03-22T09:44:12;21.40;97.20
2621;DHT22;1320;48.128;11.592;2024-03-22T09:46:40;21.50;97.00
2621;DHT22;1320;48.128;11.592;2024-03-22T09:49:11;21.80;96.20
2621;DHT22;1320;48.128;11.592;2024-03-22T09:51:37;22.10;95.60
2621;DHT22;1320;48.128;11.592;2024-03-22T09:54:04;22.20;95.10
2621;DHT22;1320;48.128;11.592;2024-03-22T09:56:31;22.20;94.80
2621;DHT22;1320;48.128;11.592;2024-03-22T09:58:58;22.20;94.40
2621;DHT22;1320;48.128;11.592;2024-03-22T10:01:26;22.30;93.80
2621;DHT22;1320;48.128;11.592;2024-03-22T10:03:52;22.20;94.20
2621;DHT22;1320;48.128;11.592;2024-03-22T10:06:18;22.30;93.50
2621;DHT22;1320;48.128;11.592;2024-03-22T10:08:44;22.30;93.50
2621;DHT22;1320;48.128;11.592;2024-03-22T10:11:11;22.40;93.40
2621;DHT22;1320;48.128;11.592;2024-03-22T10:13:37;22.20;93.40
2621;DHT22;1320;48.128;11.592;2024-03-22T10:16:02;22.20;93.60
2621;DHT22;1320;48.128;11.592;2024-03-22T10:18:28;22.10;93.80
2621;DHT22;1320;48.128;11.592;2024-03-22T10:21:01;22.10;93.60
2621;DHT22;1320;48.128;11.592;2024-03-22T10:23:28;22.10;94.00
2621;DHT22;1320;48.128;11.592;2024-03-22T10:25:55;22.10;94.30
2621;DHT22;1320;48.128;11.592;2024-03-22T10:28:21;22.20;94.50
2621;DHT22;1320;48.128;11.592;2024-03-22T10:30:49;22.40;93.90
2621;DHT22;1320;48.128;11.592;2024-03-22T10:33:16;22.50;93.20
2621;DHT22;1320;48.128;11.592;2024-03-22T10:35:44;22.50;93.30
2621;DHT22;1320;48.128;11.592;2024-03-22T10:38:12;22.50;93.30
2621;DHT22;1320;48.128;11.592;2024-03-22T10:40:40;22.40;93.40
2621;DHT22;1320;48.128;11.592;2024-03-22T10:43:07;22.20;93.70
2621;DHT22;1320;48.128;11.592;2024-03-22T10:45:34;22.10;94.30
2621;DHT22;1320;48.128;11.592;2024-03-22T10:48:01;22.20;94.00
2621;DHT22;1320;48.128;11.592;2024-03-22T10:50:29;22.20;93.50
2621;DHT22;1320;48.128;11.592;2024-03-22T10:53:03;22.20;93.80
2621;DHT22;1320;48.128;11.592;2024-03-22T10:55:38;22.20;93.60
2621;DHT22;1320;48.128;11.592;2024-03-22T10:58:05;22.00;93.90
2621;DHT22;1320;48.128;11.592;2024-03-22T11:00:32;22.10;93.60
2621;DHT22;1320;48.128;11.592;2024-03-22T11:02:59;22.00;93.60
2621;DHT22;1320;48.128;11.592;2024-03-22T11:05:27;22.10;93.80
2621;DHT22;1320;48.128;11.592;2024-03-22T11:08:26;22.10;93.90
2621;DHT22;1320;48.128;11.592;2024-03-22T11:10:52;22.20;93.60
2621;DHT22;1320;48.128;11.592;2024-03-22T11:13:18;22.20;92.80
2621;DHT22;1320;48.128;11.592;2024-03-22T11:15:47;22.10;93.10
2621;DHT22;1320;48.128;11.592;2024-03-22T11:18:13;22.10;93.50
2621;DHT22;1320;48.128;11.592;2024-03-22T11:20:42;22.20;93.10
2621;DHT22;1320;48.128;11.592;2024-03-22T11:23:09;22.40;93.40
2621;DHT22;1320;48.128;11.592;2024-03-22T11:25:34;22.50;93.60
2621;DHT22;1320;48.128;11.592;2024-03-22T11:28:00;22.50;92.80
2621;DHT22;1320;48.128;11.592;2024-03-22T11:30:32;22.50;93.30
2621;DHT22;1320;48.128;11.592;2024-03-22T11:33:04;22.40;93.30
2621;DHT22;1320;48.128;11.592;2024-03-22T11:35:31;22.50;93.00
2621;DHT22;1320;48.128;11.592;2024-03-22T11:37:57;22.60;92.60
2621;DHT22;1320;48.128;11.592;2024-03-22T11:40:25;22.50;92.80
2621;DHT22;1320;48.128;11.592;2024-03-22T11:42:52;22.40;92.70
2621;DHT22;1320;48.128;11.592;2024-03-22T11:45:19;22.40;93.20
2621;DHT22;1320;48.128;11.592;2024-03-22T11:47:47;22.30;93.40
2621;DHT22;1320;48.128;11.592;2024-03-22T11:50:13;22.50;92.90
2621;DHT22;1320;48.128;11.592;2024-03-22T11:52:43;22.60;93.40
2621;DHT22;1320;48.128;11.592;2024-03-22T11:55:13;22.70;92.10
2621;DHT22;1320;48.128;11.592;2024-03-22T11:57:40;22.70;92.10
2621;DHT22;1320;48.128;11.592;2024-03-22T12:00:06;22.60;92.60
2621;DHT22;1320;48.128;11.592;2024-03-22T12:02:35;22.60;93.00
2621;DHT22;1320;48.128;11.592;2024-03-22T12:05:02;22.60;92.40
2621;DHT22;1320;48.128;11.592;2024-03-22T12:07:28;22.50;92.20
2621;DHT22;1320;48.128;11.592;2024-03-22T12:09:54;22.50;92.30
2621;DHT22;1320;48.128;11.592;2024-03-22T12:12:22;22.40;92.90
2621;DHT22;1320;48.128;11.592;2024-03-22T12:14:50;22.50;92.70
2621;DHT22;1320;48.128;11.592;2024-03-22T12:17:16;22.60;92.40
2621;DHT22;1320;48.128;11.592;2024-03-22T12:19:42;22.50;92.70
2621;DHT22;1320;48.128;11.592;2024-03-22T12:22:08;22.40;93.40
2621;DHT22;1320;48.128;11.592;2024-03-22T12:24:36;22.30;92.70
2621;DHT22;1320;48.128;11.592;2024-03-22T12:27:02;22.30;93.40
2621;DHT22;1320;48.128;11.592;2024-03-22T12:29:27;22.10;92.70
2621;DHT22;1320;48.128;11.592;2024-03-22T12:31:53;21.90;93.50
2621;DHT22;1320;48.128;11.592;2024-03-22T12:34:19;21.90;93.30
2621;DHT22;1320;48.128;11.592;2024-03-22T12:36:45;21.90;93.60
2621;DHT22;1320;48.128;11.592;2024-03-22T12:39:11;22.00;93.30
2621;DHT22;1320;48.128;11.592;2024-03-22T12:41:37;22.00;93.10
2621;DHT22;1320;48.128;11.592;2024-03-22T12:44:03;22.10;93.00
2621;DHT22;1320;48.128;11.592;2024-03-22T12:46:29;22.10;93.10
2621;DHT22;1320;48.128;11.592;2024-03-22T12:48:54;22.10;92.80
2621;DHT22;1320;48.128;11.592;2024-03-22T12:51:20;22.10;93.50
2621;DHT22;1320;48.128;11.592;2024-03-22T12:53:47;22.20;93.20
2621;DHT22;1320;48.128;11.592;2024-03-22T12:56:13;22.20;93.40
2621;DHT22;1320;48.128;11.592;2024-03-22T12:58:38;22.20;93.30
2621;DHT22;1320;48.128;11.592;2024-03-22T13:01:05;22.30;93.10
2621;DHT22;1320;48.128;11.592;2024-03-22T13:03:32;22.40;93.00
2621;DHT22;1320;48.128;11.592;2024-03-22T13:05:58;22.40;92.70
2621;DHT22;1320;48.128;11.592;2024-03-22T13:08:24;22.50;92.90
2621;DHT22;1320;48.128;11.592;2024-03-22T13:10:49;22.70;92.80
2621;DHT22;1320;48.128;11.592;2024-03-22T13:13:16;22.80;93.10
2621;DHT22;1320;48.128;11.592;2024-03-22T13:15:45;22.90;92.70
2621;DHT22;1320;48.128;11.592;2024-03-22T13:18:12;23.00;93.00
2621;DHT22;1320;48.128;11.592;2024-03-22T13:20:38;23.20;92.90
2621;DHT22;1320;48.128;11.592;2024-03-22T13:23:04;23.40;92.20
2621;DHT22;1320;48.128;11.592;2024-03-22T13:25:30;23.50;92.10
2621;DHT22;1320;48.128;11.592;2024-03-22T13:27:57;23.50;92.20
2621;DHT22;1320;48.128;11.592;2024-03-22T13:30:22;23.60;92.00
2621;DHT22;1320;48.128;11.592;2024-03-22T13:32:48;23.70;91.80
2621;DHT22;1320;48.128;11.592;2024-03-22T13:35:14;23.80;91.70
2621;DHT22;1320;48.128;11.592;2024-03-22T13:37:43;23.70;91.70
2621;DHT22;1320;48.128;11.592;2024-03-22T13:40:09;23.60;91.80
2621;DHT22;1320;48.128;11.592;2024-03-22T13:42:36;23.70;91.30
2621;DHT22;1320;48.128;11.592;2024-03-22T13:45:02;23.70;90.10
2621;DHT22;1320;48.128;11.592;2024-03-22T13:47:28;23.60;90.30
2621;DHT22;1320;48.128;11.592;2024-03-22T13:49:54;23.50;90.50
2621;DHT22;1320;48.128;11.592;2024-03-22T13:52:20;23.50;90.60
2621;DHT22;1320;48.128;11.592;2024-03-22T13:54:48;23.50;90.80
2621;DHT22;1320;48.128;11.592;2024-03-22T13:57:17;23.60;88.40
2621;DHT22;1320;48.128;11.592;2024-03-22T13:59:45;23.70;87.30
2621;DHT22;1320;48.128;11.592;2024-03-22T14:02:11;23.70;87.50
2621;DHT22;1320;48.128;11.592;2024-03-22T14:04:37;23.90;87.80
2621;DHT22;1320;48.128;11.592;2024-03-22T14:07:03;24.00;88.40
2621;DHT22;1320;48.128;11.592;2024-03-22T14:09:31;24.10;89.00
2621;DHT22;1320;48.128;11.592;2024-03-22T14:11:57;24.20;87.80
2621;DHT22;1320;48.128;11.592;2024-03-22T14:14:24;24.40;88.00
2621;DHT22;1320;48.128;11.592;2024-03-22T14:16:49;24.50;86.80
2621;DHT22;1320;48.128;11.592;2024-03-22T14:19:15;24.60;85.30
2621;DHT22;1320;48.128;11.592;2024-03-22T14:21:43;24.60;85.60
2621;DHT22;1320;48.128;11.592;2024-03-22T14:24:09;24.50;84.50
2621;DHT22;1320;48.128;11.592;2024-03-22T14:26:35;24.40;85.20
2621;DHT22;1320;48.128;11.592;2024-03-22T14:29:08;24.40;84.90
2621;DHT22;1320;48.128;11.592;2024-03-22T14:31:34;24.30;84.50
2621;DHT22;1320;48.128;11.592;2024-03-22T14:36:26;24.20;91.20
2621;DHT22;1320;48.128;11.592;2024-03-22T14:38:52;24.10;91.80
2621;DHT22;1320;48.128;11.592;2024-03-22T14:41:17;24.20;91.90
2621;DHT22;1320;48.128;11.592;2024-03-22T14:43:44;24.20;92.00
2621;DHT22;1320;48.128;11.592;2024-03-22T14:46:10;24.20;91.90
2621;DHT22;1320;48.128;11.592;2024-03-22T14:48:35;24.10;92.30
2621;DHT22;1320;48.128;11.592;2024-03-22T14:51:01;24.00;92.50
2621;DHT22;1320;48.128;11.592;2024-03-22T14:53:27;24.00;92.60
2621;DHT22;1320;48.128;11.592;2024-03-22T14:55:57;24.10;92.10
2621;DHT22;1320;48.128;11.592;2024-03-22T14:58:27;24.20;92.20
2621;DHT22;1320;48.128;11.592;2024-03-22T15:00:54;24.20;92.00
2621;DHT22;1320;48.128;11.592;2024-03-22T15:03:20;24.30;91.90
2621;DHT22;1320;48.128;11.592;2024-03-22T15:05:46;24.20;91.60
2621;DHT22;1320;48.128;11.592;2024-03-22T15:08:12;24.20;90.50
2621;DHT22;1320;48.128;11.592;2024-03-22T15:10:38;24.20;88.80
2621;DHT22;1320;48.128;11.592;2024-03-22T15:13:04;24.10;87.50
2621;DHT22;1320;48.128;11.592;2024-03-22T15:15:32;23.90;76.80
2621;DHT22;1320;48.128;11.592;2024-03-22T15:17:59;23.40;70.90
2621;DHT22;1320;48.128;11.592;2024-03-22T15:20:24;23.00;71.60
2621;DHT22;1320;48.128;11.592;2024-03-22T15:22:53;22.80;72.30
2621;DHT22;1320;48.128;11.592;2024-03-22T15:25:19;22.60;72.00
2621;DHT22;1320;48.128;11.592;2024-03-22T15:27:44;22.50;73.10
2621;DHT22;1320;48.128;11.592;2024-03-22T15:30:10;22.50;73.30
2621;DHT22;1320;48.128;11.592;2024-03-22T15:32:36;22.50;73.10
2621;DHT22;1320;48.128;11.592;2024-03-22T15:35:03;22.80;73.30
2621;DHT22;1320;48.128;11.592;2024-03-22T15:37:29;23.10;74.20
2621;DHT22;1320;48.128;11.592;2024-03-22T15:39:55;23.20;73.50
2621;DHT22;1320;48.128;11.592;2024-03-22T15:42:21;23.20;73.90
2621;DHT22;1320;48.128;11.592;2024-03-22T15:44:46;23.30;72.90
2621;DHT22;1320;48.128;11.592;2024-03-22T15:47:12;23.30;72.80
2621;DHT22;1320;48.128;11.592;2024-03-22T15:49:38;23.20;73.20
2621;DHT22;1320;48.128;11.592;2024-03-22T15:52:04;23.10;72.40